sensor_id;sensor_type;location;lat;lon;timestamp;P1;durP1;ratioP1;P2;durP2;ratioP2
17365;SDS011;8800;50.118;9.900;2022-09-30T00:01:10;8.73;;;4.15;;
17365;SDS011;8800;50.118;9.900;2022-09-30T00:03:36;10.15;;;4.18;;
17365;SDS011;8800;50.118;9.900;2022-09-30T00:06:03;8.90;;;3.92;;
17365;SDS011;8800;50.118;9.900;2022-09-30T00:08:30;7.72;;;3.72;;
17365;SDS011;8800;50.118;9.900;2022-09-30T00:10:58;7.68;;;4.07;;
17365;SDS011;8800;50.118;9.900;2022-09-30T00:13:25;8.32;;;4.28;;
17365;SDS011;8800;50.118;9.900;2022-09-30T00:15:51;7.75;;;3.50;;
17365;SDS011;8800;50.118;9.900;2022-09-30T00:18:18;9.05;;;3.70;;
17365;SDS011;8800;50.118;9.900;2022-09-30T00:20:44;10.13;;;3.63;;
17365;SDS011;8800;50.118;9.900;2022-09-30T00:23:11;5.97;;;3.58;;
17365;SDS011;8800;50.118;9.900;2022-09-30T00:25:37;7.20;;;4.10;;
17365;SDS011;8800;50.118;9.900;2022-09-30T00:28:05;7.82;;;4.18;;
17365;SDS011;8800;50.118;9.900;2022-09-30T00:30:32;8.15;;;3.70;;
17365;SDS011;8800;50.118;9.900;2022-09-30T00:32:58;7.85;;;4.30;;
17365;SDS011;8800;50.118;9.900;2022-09-30T00:35:25;10.55;;;4.60;;
17365;SDS011;8800;50.118;9.900;2022-09-30T00:37:51;14.90;;;4.47;;
17365;SDS011;8800;50.118;9.900;2022-09-30T00:40:19;8.00;;;4.20;;
17365;SDS011;8800;50.118;9.900;2022-09-30T00:42:45;8.63;;;4.80;;
17365;SDS011;8800;50.118;9.900;2022-09-30T00:45:13;9.75;;;4.45;;
17365;SDS011;8800;50.118;9.900;2022-09-30T00:47:45;7.22;;;4.25;;
17365;SDS011;8800;50.118;9.900;2022-09-30T00:53:10;10.63;;;4.55;;
17365;SDS011;8800;50.118;9.900;2022-09-30T00:55:41;6.43;;;4.10;;
17365;SDS011;8800;50.118;9.900;2022-09-30T00:58:10;12.00;;;4.05;;
17365;SDS011;8800;50.118;9.900;2022-09-30T01:00:39;9.35;;;4.55;;
17365;SDS011;8800;50.118;9.900;2022-09-30T01:03:05;8.30;;;4.68;;
17365;SDS011;8800;50.118;9.900;2022-09-30T01:05:32;7.63;;;4.60;;
17365;SDS011;8800;50.118;9.900;2022-09-30T01:07:59;11.50;;;4.88;;
17365;SDS011;8800;50.118;9.900;2022-09-30T01:10:26;7.28;;;4.43;;
17365;SDS011;8800;50.118;9.900;2022-09-30T01:12:53;9.82;;;4.30;;
17365;SDS011;8800;50.118;9.900;2022-09-30T01:15:20;8.85;;;4.75;;
17365;SDS011;8800;50.118;9.900;2022-09-30T01:17:51;11.75;;;4.30;;
17365;SDS011;8800;50.118;9.900;2022-09-30T01:20:25;7.57;;;4.45;;
17365;SDS011;8800;50.118;9.900;2022-09-30T01:23:00;7.53;;;4.32;;
17365;SDS011;8800;50.118;9.900;2022-09-30T01:25:36;12.90;;;4.93;;
17365;SDS011;8800;50.118;9.900;2022-09-30T01:31:00;8.48;;;4.78;;
17365;SDS011;8800;50.118;9.900;2022-09-30T01:33:31;10.10;;;4.82;;
17365;SDS011;8800;50.118;9.900;2022-09-30T01:36:05;7.28;;;4.03;;
17365;SDS011;8800;50.118;9.900;2022-09-30T01:38:40;7.40;;;4.35;;
17365;SDS011;8800;50.118;9.900;2022-09-30T01:41:09;6.50;;;3.80;;
17365;SDS011;8800;50.118;9.900;2022-09-30T01:43:39;7.25;;;3.92;;
17365;SDS011;8800;50.118;9.900;2022-09-30T01:46:16;6.07;;;3.88;;
17365;SDS011;8800;50.118;9.900;2022-09-30T01:48:45;7.80;;;3.97;;
17365;SDS011;8800;50.118;9.900;2022-09-30T01:51:15;7.38;;;4.10;;
17365;SDS011;8800;50.118;9.900;2022-09-30T01:53:44;10.35;;;4.22;;
17365;SDS011;8800;50.118;9.900;2022-09-30T01:56:12;9.10;;;4.15;;
17365;SDS011;8800;50.118;9.900;2022-09-30T01:58:42;11.05;;;4.10;;
17365;SDS011;8800;50.118;9.900;2022-09-30T02:01:12;12.43;;;3.97;;
17365;SDS011;8800;50.118;9.900;2022-09-30T02:03:42;12.93;;;5.07;;
17365;SDS011;8800;50.118;9.900;2022-09-30T02:06:11;19.17;;;3.90;;
17365;SDS011;8800;50.118;9.900;2022-09-30T02:08:40;14.50;;;3.88;;
17365;SDS011;8800;50.118;9.900;2022-09-30T02:11:11;9.55;;;4.50;;
17365;SDS011;8800;50.118;9.900;2022-09-30T02:13:39;9.80;;;4.50;;
17365;SDS011;8800;50.118;9.900;2022-09-30T02:16:08;9.20;;;4.43;;
17365;SDS011;8800;50.118;9.900;2022-09-30T02:18:39;7.32;;;4.28;;
17365;SDS011;8800;50.118;9.900;2022-09-30T02:21:06;6.82;;;3.88;;
17365;SDS011;8800;50.118;9.900;2022-09-30T02:23:34;6.43;;;3.95;;
17365;SDS011;8800;50.118;9.900;2022-09-30T02:26:05;7.32;;;4.10;;
17365;SDS011;8800;50.118;9.900;2022-09-30T02:28:33;10.65;;;4.80;;
17365;SDS011;8800;50.118;9.900;2022-09-30T02:31:02;7.43;;;4.22;;
17365;SDS011;8800;50.118;9.900;2022-09-30T02:33:31;10.48;;;4.15;;
17365;SDS011;8800;50.118;9.900;2022-09-30T02:36:00;14.25;;;4.47;;
17365;SDS011;8800;50.118;9.900;2022-09-30T02:38:30;6.05;;;3.65;;
17365;SDS011;8800;50.118;9.900;2022-09-30T02:41:02;10.73;;;3.67;;
17365;SDS011;8800;50.118;9.900;2022-09-30T02:43:30;9.52;;;3.50;;
17365;SDS011;8800;50.118;9.900;2022-09-30T02:46:07;6.32;;;3.40;;
17365;SDS011;8800;50.118;9.900;2022-09-30T02:48:37;8.63;;;3.70;;
17365;SDS011;8800;50.118;9.900;2022-09-30T02:51:10;9.52;;;3.08;;
17365;SDS011;8800;50.118;9.900;2022-09-30T02:53:40;6.30;;;3.60;;
17365;SDS011;8800;50.118;9.900;2022-09-30T02:56:11;6.78;;;3.33;;
17365;SDS011;8800;50.118;9.900;2022-09-30T02:58:39;5.82;;;3.47;;
17365;SDS011;8800;50.118;9.900;2022-09-30T03:01:07;6.05;;;3.90;;
17365;SDS011;8800;50.118;9.900;2022-09-30T03:03:37;9.20;;;3.80;;
17365;SDS011;8800;50.118;9.900;2022-09-30T03:06:05;9.07;;;4.30;;
17365;SDS011;8800;50.118;9.900;2022-09-30T03:08:34;15.30;;;4.13;;
17365;SDS011;8800;50.118;9.900;2022-09-30T03:11:01;12.57;;;6.22;;
17365;SDS011;8800;50.118;9.900;2022-09-30T03:13:33;14.32;;;5.90;;
17365;SDS011;8800;50.118;9.900;2022-09-30T03:16:09;8.45;;;4.43;;
17365;SDS011;8800;50.118;9.900;2022-09-30T03:18:45;9.73;;;4.35;;
17365;SDS011;8800;50.118;9.900;2022-09-30T03:21:17;10.35;;;4.15;;
17365;SDS011;8800;50.118;9.900;2022-09-30T03:23:58;17.15;;;3.97;;
17365;SDS011;8800;50.118;9.900;2022-09-30T03:26:33;9.50;;;4.50;;
17365;SDS011;8800;50.118;9.900;2022-09-30T03:29:05;8.05;;;3.47;;
17365;SDS011;8800;50.118;9.900;2022-09-30T03:31:36;9.00;;;3.90;;
17365;SDS011;8800;50.118;9.900;2022-09-30T03:34:08;6.47;;;3.70;;
17365;SDS011;8800;50.118;9.900;2022-09-30T03:36:39;7.15;;;4.18;;
17365;SDS011;8800;50.118;9.900;2022-09-30T03:39:12;13.02;;;4.00;;
17365;SDS011;8800;50.118;9.900;2022-09-30T03:41:43;10.27;;;3.40;;
17365;SDS011;8800;50.118;9.900;2022-09-30T03:44:14;10.73;;;3.72;;
17365;SDS011;8800;50.118;9.900;2022-09-30T03:46:42;10.95;;;4.90;;
17365;SDS011;8800;50.118;9.900;2022-09-30T03:49:10;6.97;;;3.78;;
17365;SDS011;8800;50.118;9.900;2022-09-30T03:51:38;8.98;;;4.07;;
17365;SDS011;8800;50.118;9.900;2022-09-30T03:54:06;11.35;;;3.40;;
17365;SDS011;8800;50.118;9.900;2022-09-30T03:56:35;8.50;;;3.75;;
17365;SDS011;8800;50.118;9.900;2022-09-30T03:59:07;8.63;;;3.75;;
17365;SDS011;8800;50.118;9.900;2022-09-30T04:01:34;6.03;;;3.83;;
17365;SDS011;8800;50.118;9.900;2022-09-30T04:04:00;6.85;;;3.50;;
17365;SDS011;8800;50.118;9.900;2022-09-30T04:06:27;8.63;;;3.78;;
17365;SDS011;8800;50.118;9.900;2022-09-30T04:08:53;11.20;;;4.38;;
17365;SDS011;8800;50.118;9.900;2022-09-30T04:11:19;8.00;;;3.60;;
17365;SDS011;8800;50.118;9.900;2022-09-30T04:13:47;11.50;;;3.15;;
17365;SDS011;8800;50.118;9.900;2022-09-30T04:16:14;11.38;;;3.60;;
17365;SDS011;8800;50.118;9.900;2022-09-30T04:18:40;10.85;;;3.58;;
17365;SDS011;8800;50.118;9.900;2022-09-30T04:21:07;7.22;;;3.22;;
17365;SDS011;8800;50.118;9.900;2022-09-30T04:23:34;9.90;;;3.63;;
17365;SDS011;8800;50.118;9.900;2022-09-30T04:26:00;7.18;;;4.00;;
17365;SDS011;8800;50.118;9.900;2022-09-30T04:28:26;6.65;;;4.00;;
17365;SDS011;8800;50.118;9.900;2022-09-30T04:30:54;10.32;;;3.70;;
17365;SDS011;8800;50.118;9.900;2022-09-30T04:33:23;6.80;;;3.97;;
17365;SDS011;8800;50.118;9.900;2022-09-30T04:35:51;7.47;;;3.22;;
17365;SDS011;8800;50.118;9.900;2022-09-30T04:38:18;7.50;;;3.30;;
17365;SDS011;8800;50.118;9.900;2022-09-30T04:40:44;6.03;;;3.33;;
17365;SDS011;8800;50.118;9.900;2022-09-30T04:43:13;7.53;;;3.33;;
17365;SDS011;8800;50.118;9.900;2022-09-30T04:45:41;5.43;;;2.92;;
17365;SDS011;8800;50.118;9.900;2022-09-30T04:48:09;5.63;;;3.38;;
17365;SDS011;8800;50.118;9.900;2022-09-30T04:50:36;6.35;;;3.33;;
17365;SDS011;8800;50.118;9.900;2022-09-30T04:53:02;9.45;;;3.38;;
17365;SDS011;8800;50.118;9.900;2022-09-30T04:55:28;5.32;;;3.20;;
17365;SDS011;8800;50.118;9.900;2022-09-30T04:57:55;5.70;;;3.08;;
17365;SDS011;8800;50.118;9.900;2022-09-30T05:00:21;7.88;;;3.50;;
17365;SDS011;8800;50.118;9.900;2022-09-30T05:02:49;13.80;;;3.30;;
17365;SDS011;8800;50.118;9.900;2022-09-30T05:05:16;8.68;;;3.55;;
17365;SDS011;8800;50.118;9.900;2022-09-30T05:07:43;20.67;;;4.35;;
17365;SDS011;8800;50.118;9.900;2022-09-30T05:10:10;8.45;;;3.80;;
17365;SDS011;8800;50.118;9.900;2022-09-30T05:12:36;6.95;;;4.00;;
17365;SDS011;8800;50.118;9.900;2022-09-30T05:15:04;9.13;;;3.60;;
17365;SDS011;8800;50.118;9.900;2022-09-30T05:17:31;6.68;;;3.20;;
17365;SDS011;8800;50.118;9.900;2022-09-30T05:19:57;16.35;;;3.67;;
17365;SDS011;8800;50.118;9.900;2022-09-30T05:22:25;12.38;;;3.35;;
17365;SDS011;8800;50.118;9.900;2022-09-30T05:24:52;6.35;;;3.28;;
17365;SDS011;8800;50.118;9.900;2022-09-30T05:27:20;7.70;;;3.80;;
17365;SDS011;8800;50.118;9.900;2022-09-30T05:29:46;11.98;;;4.03;;
17365;SDS011;8800;50.118;9.900;2022-09-30T05:32:13;8.40;;;4.35;;
17365;SDS011;8800;50.118;9.900;2022-09-30T05:34:39;8.65;;;4.05;;
17365;SDS011;8800;50.118;9.900;2022-09-30T05:37:06;9.45;;;4.38;;
17365;SDS011;8800;50.118;9.900;2022-09-30T05:39:36;10.98;;;4.40;;
17365;SDS011;8800;50.118;9.900;2022-09-30T05:42:02;8.73;;;4.15;;
17365;SDS011;8800;50.118;9.900;2022-09-30T05:44:28;8.75;;;4.00;;
17365;SDS011;8800;50.118;9.900;2022-09-30T05:46:55;5.88;;;3.00;;
17365;SDS011;8800;50.118;9.900;2022-09-30T05:49:22;7.22;;;3.00;;
17365;SDS011;8800;50.118;9.900;2022-09-30T05:51:48;4.45;;;2.72;;
17365;SDS011;8800;50.118;9.900;2022-09-30T05:54:15;6.47;;;3.08;;
17365;SDS011;8800;50.118;9.900;2022-09-30T05:56:42;7.03;;;2.92;;
17365;SDS011;8800;50.118;9.900;2022-09-30T05:59:09;4.38;;;2.65;;
17365;SDS011;8800;50.118;9.900;2022-09-30T06:01:35;4.32;;;2.75;;
17365;SDS011;8800;50.118;9.900;2022-09-30T06:04:02;7.18;;;2.70;;
17365;SDS011;8800;50.118;9.900;2022-09-30T06:06:28;4.53;;;2.70;;
17365;SDS011;8800;50.118;9.900;2022-09-30T06:08:55;5.65;;;2.72;;
17365;SDS011;8800;50.118;9.900;2022-09-30T06:11:22;8.38;;;2.45;;
17365;SDS011;8800;50.118;9.900;2022-09-30T06:13:50;15.07;;;2.80;;
17365;SDS011;8800;50.118;9.900;2022-09-30T06:16:17;12.60;;;2.70;;
17365;SDS011;8800;50.118;9.900;2022-09-30T06:18:43;6.50;;;2.40;;
17365;SDS011;8800;50.118;9.900;2022-09-30T06:21:11;5.18;;;2.55;;
17365;SDS011;8800;50.118;9.900;2022-09-30T06:23:38;7.30;;;3.42;;
17365;SDS011;8800;50.118;9.900;2022-09-30T06:26:05;6.57;;;3.45;;
17365;SDS011;8800;50.118;9.900;2022-09-30T06:28:32;5.80;;;3.45;;
17365;SDS011;8800;50.118;9.900;2022-09-30T06:31:01;7.50;;;3.70;;
17365;SDS011;8800;50.118;9.900;2022-09-30T06:33:28;6.93;;;3.90;;
17365;SDS011;8800;50.118;9.900;2022-09-30T06:35:54;8.30;;;3.42;;
17365;SDS011;8800;50.118;9.900;2022-09-30T06:38:21;14.10;;;4.43;;
17365;SDS011;8800;50.118;9.900;2022-09-30T06:40:48;11.00;;;3.80;;
17365;SDS011;8800;50.118;9.900;2022-09-30T06:43:15;6.50;;;3.13;;
17365;SDS011;8800;50.118;9.900;2022-09-30T06:45:41;8.80;;;4.13;;
17365;SDS011;8800;50.118;9.900;2022-09-30T06:48:11;13.23;;;3.42;;
17365;SDS011;8800;50.118;9.900;2022-09-30T06:50:38;9.38;;;3.60;;
17365;SDS011;8800;50.118;9.900;2022-09-30T06:53:05;9.23;;;3.80;;
17365;SDS011;8800;50.118;9.900;2022-09-30T06:55:32;7.43;;;3.60;;
17365;SDS011;8800;50.118;9.900;2022-09-30T06:58:03;10.25;;;4.72;;
17365;SDS011;8800;50.118;9.900;2022-09-30T07:00:30;9.93;;;3.58;;
17365;SDS011;8800;50.118;9.900;2022-09-30T07:02:56;9.50;;;3.65;;
17365;SDS011;8800;50.118;9.900;2022-09-30T07:05:24;7.90;;;3.63;;
17365;SDS011;8800;50.118;9.900;2022-09-30T07:07:51;6.70;;;3.40;;
17365;SDS011;8800;50.118;9.900;2022-09-30T07:10:18;10.40;;;3.20;;
17365;SDS011;8800;50.118;9.900;2022-09-30T07:12:47;8.57;;;3.38;;
17365;SDS011;8800;50.118;9.900;2022-09-30T07:15:15;12.82;;;3.05;;
17365;SDS011;8800;50.118;9.900;2022-09-30T07:17:41;5.68;;;3.22;;
17365;SDS011;8800;50.118;9.900;2022-09-30T07:20:08;9.18;;;3.17;;
17365;SDS011;8800;50.118;9.900;2022-09-30T07:22:36;6.78;;;3.17;;
17365;SDS011;8800;50.118;9.900;2022-09-30T07:25:04;5.88;;;3.60;;
17365;SDS011;8800;50.118;9.900;2022-09-30T07:27:31;10.88;;;3.20;;
17365;SDS011;8800;50.118;9.900;2022-09-30T07:29:58;18.30;;;3.42;;
17365;SDS011;8800;50.118;9.900;2022-09-30T07:32:26;21.38;;;2.83;;
17365;SDS011;8800;50.118;9.900;2022-09-30T07:34:53;14.68;;;3.30;;
17365;SDS011;8800;50.118;9.900;2022-09-30T07:37:19;11.98;;;2.97;;
17365;SDS011;8800;50.118;9.900;2022-09-30T07:39:47;12.88;;;3.20;;
17365;SDS011;8800;50.118;9.900;2022-09-30T07:42:14;7.78;;;3.22;;
17365;SDS011;8800;50.118;9.900;2022-09-30T07:44:45;7.68;;;2.92;;
17365;SDS011;8800;50.118;9.900;2022-09-30T07:47:12;8.60;;;2.90;;
17365;SDS011;8800;50.118;9.900;2022-09-30T07:49:39;5.45;;;3.10;;
17365;SDS011;8800;50.118;9.900;2022-09-30T07:52:06;5.60;;;2.95;;
17365;SDS011;8800;50.118;9.900;2022-09-30T07:54:33;7.45;;;3.28;;
17365;SDS011;8800;50.118;9.900;2022-09-30T07:57:02;4.95;;;3.28;;
17365;SDS011;8800;50.118;9.900;2022-09-30T07:59:29;5.50;;;2.90;;
17365;SDS011;8800;50.118;9.900;2022-09-30T08:01:57;4.68;;;2.90;;
17365;SDS011;8800;50.118;9.900;2022-09-30T08:04:24;3.63;;;2.35;;
17365;SDS011;8800;50.118;9.900;2022-09-30T08:06:51;2.92;;;1.92;;
17365;SDS011;8800;50.118;9.900;2022-09-30T08:09:19;3.10;;;2.15;;
17365;SDS011;8800;50.118;9.900;2022-09-30T08:11:46;4.78;;;2.83;;
17365;SDS011;8800;50.118;9.900;2022-09-30T08:14:14;4.28;;;2.42;;
17365;SDS011;8800;50.118;9.900;2022-09-30T08:16:41;4.68;;;2.63;;
17365;SDS011;8800;50.118;9.900;2022-09-30T08:19:08;4.72;;;2.58;;
17365;SDS011;8800;50.118;9.900;2022-09-30T08:21:38;3.50;;;2.50;;
17365;SDS011;8800;50.118;9.900;2022-09-30T08:24:04;7.55;;;3.70;;
17365;SDS011;8800;50.118;9.900;2022-09-30T08:26:31;6.10;;;3.40;;
17365;SDS011;8800;50.118;9.900;2022-09-30T08:28:57;6.32;;;3.63;;
17365;SDS011;8800;50.118;9.900;2022-09-30T08:31:25;6.32;;;3.38;;
17365;SDS011;8800;50.118;9.900;2022-09-30T08:33:52;8.10;;;4.80;;
17365;SDS011;8800;50.118;9.900;2022-09-30T08:36:20;8.52;;;5.10;;
17365;SDS011;8800;50.118;9.900;2022-09-30T08:38:47;12.15;;;4.97;;
17365;SDS011;8800;50.118;9.900;2022-09-30T08:41:17;9.13;;;4.95;;
17365;SDS011;8800;50.118;9.900;2022-09-30T08:43:49;7.65;;;4.75;;
17365;SDS011;8800;50.118;9.900;2022-09-30T08:46:20;10.18;;;5.13;;
17365;SDS011;8800;50.118;9.900;2022-09-30T08:48:55;7.72;;;4.72;;
17365;SDS011;8800;50.118;9.900;2022-09-30T08:51:27;9.32;;;4.78;;
17365;SDS011;8800;50.118;9.900;2022-09-30T08:53:56;10.77;;;4.82;;
17365;SDS011;8800;50.118;9.900;2022-09-30T08:56:24;7.90;;;4.47;;
17365;SDS011;8800;50.118;9.900;2022-09-30T08:58:52;7.55;;;4.43;;
17365;SDS011;8800;50.118;9.900;2022-09-30T09:01:22;7.43;;;4.47;;
17365;SDS011;8800;50.118;9.900;2022-09-30T09:03:52;7.55;;;4.60;;
17365;SDS011;8800;50.118;9.900;2022-09-30T09:06:21;7.22;;;4.85;;
17365;SDS011;8800;50.118;9.900;2022-09-30T09:08:54;8.57;;;4.22;;
17365;SDS011;8800;50.118;9.900;2022-09-30T09:11:23;8.23;;;4.40;;
17365;SDS011;8800;50.118;9.900;2022-09-30T09:13:56;6.53;;;4.55;;
17365;SDS011;8800;50.118;9.900;2022-09-30T09:16:26;9.95;;;4.70;;
17365;SDS011;8800;50.118;9.900;2022-09-30T09:18:58;7.43;;;4.15;;
17365;SDS011;8800;50.118;9.900;2022-09-30T09:21:30;5.57;;;3.70;;
17365;SDS011;8800;50.118;9.900;2022-09-30T09:24:02;6.60;;;3.75;;
17365;SDS011;8800;50.118;9.900;2022-09-30T09:26:32;6.68;;;4.20;;
17365;SDS011;8800;50.118;9.900;2022-09-30T09:29:02;5.18;;;3.45;;
17365;SDS011;8800;50.118;9.900;2022-09-30T09:31:33;5.40;;;3.72;;
17365;SDS011;8800;50.118;9.900;2022-09-30T09:34:06;6.65;;;3.70;;
17365;SDS011;8800;50.118;9.900;2022-09-30T09:36:37;5.68;;;3.78;;
17365;SDS011;8800;50.118;9.900;2022-09-30T09:39:10;5.70;;;3.30;;
17365;SDS011;8800;50.118;9.900;2022-09-30T09:41:42;4.88;;;3.40;;
17365;SDS011;8800;50.118;9.900;2022-09-30T09:44:16;5.00;;;2.60;;
17365;SDS011;8800;50.118;9.900;2022-09-30T09:46:48;5.95;;;3.33;;
17365;SDS011;8800;50.118;9.900;2022-09-30T09:49:27;4.65;;;2.95;;
17365;SDS011;8800;50.118;9.900;2022-09-30T09:51:56;5.13;;;3.03;;
17365;SDS011;8800;50.118;9.900;2022-09-30T09:54:27;4.10;;;2.70;;
17365;SDS011;8800;50.118;9.900;2022-09-30T09:56:55;4.50;;;2.80;;
17365;SDS011;8800;50.118;9.900;2022-09-30T09:59:21;3.28;;;2.42;;
17365;SDS011;8800;50.118;9.900;2022-09-30T10:01:49;4.53;;;2.60;;
17365;SDS011;8800;50.118;9.900;2022-09-30T10:04:17;5.22;;;2.75;;
17365;SDS011;8800;50.118;9.900;2022-09-30T10:06:48;3.47;;;2.47;;
17365;SDS011;8800;50.118;9.900;2022-09-30T10:09:25;4.65;;;2.58;;
17365;SDS011;8800;50.118;9.900;2022-09-30T10:14:38;2.83;;;2.10;;
17365;SDS011;8800;50.118;9.900;2022-09-30T10:17:16;2.40;;;1.70;;
17365;SDS011;8800;50.118;9.900;2022-09-30T10:19:45;3.42;;;1.80;;
17365;SDS011;8800;50.118;9.900;2022-09-30T10:22:19;2.80;;;1.80;;
17365;SDS011;8800;50.118;9.900;2022-09-30T10:24:46;2.90;;;1.90;;
17365;SDS011;8800;50.118;9.900;2022-09-30T10:27:24;5.13;;;1.63;;
17365;SDS011;8800;50.118;9.900;2022-09-30T10:29:51;3.15;;;1.85;;
17365;SDS011;8800;50.118;9.900;2022-09-30T10:32:18;9.75;;;2.03;;
17365;SDS011;8800;50.118;9.900;2022-09-30T10:34:45;4.10;;;2.13;;
17365;SDS011;8800;50.118;9.900;2022-09-30T10:37:13;3.42;;;1.95;;
17365;SDS011;8800;50.118;9.900;2022-09-30T10:39:42;4.40;;;1.70;;
17365;SDS011;8800;50.118;9.900;2022-09-30T10:42:14;5.53;;;1.80;;
17365;SDS011;8800;50.118;9.900;2022-09-30T10:44:42;5.13;;;2.17;;
17365;SDS011;8800;50.118;9.900;2022-09-30T10:47:12;2.63;;;1.83;;
17365;SDS011;8800;50.118;9.900;2022-09-30T10:49:41;3.38;;;1.70;;
17365;SDS011;8800;50.118;9.900;2022-09-30T10:52:14;2.22;;;1.67;;
17365;SDS011;8800;50.118;9.900;2022-09-30T10:54:45;3.03;;;2.20;;
17365;SDS011;8800;50.118;9.900;2022-09-30T10:57:13;5.82;;;1.80;;
17365;SDS011;8800;50.118;9.900;2022-09-30T10:59:40;4.05;;;1.60;;
17365;SDS011;8800;50.118;9.900;2022-09-30T11:02:19;3.75;;;1.40;;
17365;SDS011;8800;50.118;9.900;2022-09-30T11:04:50;2.63;;;1.73;;
17365;SDS011;8800;50.118;9.900;2022-09-30T11:07:21;5.65;;;1.55;;
17365;SDS011;8800;50.118;9.900;2022-09-30T11:09:53;2.92;;;1.58;;
17365;SDS011;8800;50.118;9.900;2022-09-30T11:12:23;1.80;;;1.40;;
17365;SDS011;8800;50.118;9.900;2022-09-30T11:14:53;3.03;;;1.63;;
17365;SDS011;8800;50.118;9.900;2022-09-30T11:17:24;3.80;;;1.65;;
17365;SDS011;8800;50.118;9.900;2022-09-30T11:19:53;3.90;;;1.92;;
17365;SDS011;8800;50.118;9.900;2022-09-30T11:22:28;2.08;;;1.20;;
17365;SDS011;8800;50.118;9.900;2022-09-30T11:24:56;3.20;;;1.60;;
17365;SDS011;8800;50.118;9.900;2022-09-30T11:27:26;2.28;;;1.20;;
17365;SDS011;8800;50.118;9.900;2022-09-30T11:29:58;2.15;;;1.38;;
17365;SDS011;8800;50.118;9.900;2022-09-30T11:32:34;4.13;;;1.60;;
17365;SDS011;8800;50.118;9.900;2022-09-30T11:35:07;2.47;;;1.23;;
17365;SDS011;8800;50.118;9.900;2022-09-30T11:37:41;2.80;;;1.30;;
17365;SDS011;8800;50.118;9.900;2022-09-30T11:40:17;2.10;;;1.10;;
17365;SDS011;8800;50.118;9.900;2022-09-30T11:42:47;1.33;;;1.00;;
17365;SDS011;8800;50.118;9.900;2022-09-30T11:45:20;2.30;;;1.10;;
17365;SDS011;8800;50.118;9.900;2022-09-30T11:47:55;2.42;;;1.20;;
17365;SDS011;8800;50.118;9.900;2022-09-30T11:50:32;1.80;;;1.00;;
17365;SDS011;8800;50.118;9.900;2022-09-30T11:53:08;1.33;;;1.17;;
17365;SDS011;8800;50.118;9.900;2022-09-30T11:58:24;2.10;;;1.10;;
17365;SDS011;8800;50.118;9.900;2022-09-30T12:00:54;1.42;;;1.02;;
17365;SDS011;8800;50.118;9.900;2022-09-30T12:03:24;3.00;;;1.17;;
17365;SDS011;8800;50.118;9.900;2022-09-30T12:05:52;1.48;;;1.00;;
17365;SDS011;8800;50.118;9.900;2022-09-30T12:08:21;2.90;;;0.90;;
17365;SDS011;8800;50.118;9.900;2022-09-30T12:10:50;1.17;;;0.90;;
17365;SDS011;8800;50.118;9.900;2022-09-30T12:13:19;2.60;;;1.13;;
17365;SDS011;8800;50.118;9.900;2022-09-30T12:15:50;1.33;;;0.80;;
17365;SDS011;8800;50.118;9.900;2022-09-30T12:18:20;1.88;;;1.02;;
17365;SDS011;8800;50.118;9.900;2022-09-30T12:20:48;1.45;;;1.00;;
17365;SDS011;8800;50.118;9.900;2022-09-30T12:23:17;3.50;;;1.10;;
17365;SDS011;8800;50.118;9.900;2022-09-30T12:25:45;1.35;;;1.00;;
17365;SDS011;8800;50.118;9.900;2022-09-30T12:28:15;2.47;;;1.30;;
17365;SDS011;8800;50.118;9.900;2022-09-30T12:31:05;3.03;;;0.80;;
17365;SDS011;8800;50.118;9.900;2022-09-30T12:33:43;1.65;;;0.82;;
17365;SDS011;8800;50.118;9.900;2022-09-30T12:36:25;1.70;;;0.80;;
17365;SDS011;8800;50.118;9.900;2022-09-30T12:41:48;4.32;;;0.80;;
17365;SDS011;8800;50.118;9.900;2022-09-30T12:44:42;1.55;;;0.80;;
17365;SDS011;8800;50.118;9.900;2022-09-30T12:47:19;1.52;;;0.88;;
17365;SDS011;8800;50.118;9.900;2022-09-30T12:49:47;2.05;;;0.85;;
17365;SDS011;8800;50.118;9.900;2022-09-30T12:52:16;1.23;;;0.70;;
17365;SDS011;8800;50.118;9.900;2022-09-30T12:54:46;4.22;;;1.50;;
17365;SDS011;8800;50.118;9.900;2022-09-30T12:57:15;1.48;;;0.82;;
17365;SDS011;8800;50.118;9.900;2022-09-30T12:59:44;1.05;;;0.80;;
17365;SDS011;8800;50.118;9.900;2022-09-30T13:02:24;2.58;;;0.88;;
17365;SDS011;8800;50.118;9.900;2022-09-30T13:04:52;1.02;;;0.77;;
17365;SDS011;8800;50.118;9.900;2022-09-30T13:07:19;0.98;;;0.68;;
17365;SDS011;8800;50.118;9.900;2022-09-30T13:09:56;3.28;;;0.80;;
17365;SDS011;8800;50.118;9.900;2022-09-30T13:12:24;1.13;;;0.70;;
17365;SDS011;8800;50.118;9.900;2022-09-30T13:17:33;1.80;;;0.95;;
17365;SDS011;8800;50.118;9.900;2022-09-30T13:20:00;1.25;;;0.70;;
17365;SDS011;8800;50.118;9.900;2022-09-30T13:25:17;1.17;;;0.73;;
17365;SDS011;8800;50.118;9.900;2022-09-30T13:27:45;1.65;;;0.77;;
17365;SDS011;8800;50.118;9.900;2022-09-30T13:30:31;0.95;;;0.70;;
17365;SDS011;8800;50.118;9.900;2022-09-30T13:33:25;2.42;;;0.90;;
17365;SDS011;8800;50.118;9.900;2022-09-30T13:35:55;2.25;;;0.88;;
17365;SDS011;8800;50.118;9.900;2022-09-30T13:38:32;1.02;;;0.77;;
17365;SDS011;8800;50.118;9.900;2022-09-30T13:41:01;1.05;;;0.70;;
17365;SDS011;8800;50.118;9.900;2022-09-30T13:43:30;0.80;;;0.80;;
17365;SDS011;8800;50.118;9.900;2022-09-30T13:46:03;0.73;;;0.70;;
17365;SDS011;8800;50.118;9.900;2022-09-30T13:48:31;0.98;;;0.77;;
17365;SDS011;8800;50.118;9.900;2022-09-30T13:50:58;0.88;;;0.60;;
17365;SDS011;8800;50.118;9.900;2022-09-30T13:53:26;1.02;;;0.70;;
17365;SDS011;8800;50.118;9.900;2022-09-30T13:55:54;1.20;;;0.50;;
17365;SDS011;8800;50.118;9.900;2022-09-30T13:58:28;0.82;;;0.70;;
17365;SDS011;8800;50.118;9.900;2022-09-30T14:00:58;0.95;;;0.65;;
17365;SDS011;8800;50.118;9.900;2022-09-30T14:03:46;1.17;;;0.68;;
17365;SDS011;8800;50.118;9.900;2022-09-30T14:06:20;1.85;;;0.70;;
17365;SDS011;8800;50.118;9.900;2022-09-30T14:09:00;0.82;;;0.50;;
17365;SDS011;8800;50.118;9.900;2022-09-30T14:11:41;2.60;;;0.75;;
17365;SDS011;8800;50.118;9.900;2022-09-30T14:14:16;1.30;;;0.60;;
17365;SDS011;8800;50.118;9.900;2022-09-30T14:17:03;0.98;;;0.65;;
17365;SDS011;8800;50.118;9.900;2022-09-30T14:19:46;0.60;;;0.60;;
17365;SDS011;8800;50.118;9.900;2022-09-30T14:22:18;1.00;;;0.77;;
17365;SDS011;8800;50.118;9.900;2022-09-30T14:24:46;0.60;;;0.60;;
17365;SDS011;8800;50.118;9.900;2022-09-30T14:27:28;1.00;;;0.60;;
17365;SDS011;8800;50.118;9.900;2022-09-30T14:29:58;0.40;;;0.40;;
17365;SDS011;8800;50.118;9.900;2022-09-30T14:32:28;1.33;;;0.77;;
17365;SDS011;8800;50.118;9.900;2022-09-30T14:34:57;0.98;;;0.65;;
17365;SDS011;8800;50.118;9.900;2022-09-30T14:37:25;1.85;;;0.70;;
17365;SDS011;8800;50.118;9.900;2022-09-30T14:39:52;0.73;;;0.55;;
17365;SDS011;8800;50.118;9.900;2022-09-30T14:42:21;0.77;;;0.57;;
17365;SDS011;8800;50.118;9.900;2022-09-30T14:44:49;0.95;;;0.70;;
17365;SDS011;8800;50.118;9.900;2022-09-30T14:47:15;1.25;;;0.70;;
17365;SDS011;8800;50.118;9.900;2022-09-30T14:49:42;1.52;;;0.73;;
17365;SDS011;8800;50.118;9.900;2022-09-30T14:54:51;0.90;;;0.63;;
17365;SDS011;8800;50.118;9.900;2022-09-30T14:57:18;1.50;;;0.70;;
17365;SDS011;8800;50.118;9.900;2022-09-30T14:59:46;1.15;;;0.60;;
17365;SDS011;8800;50.118;9.900;2022-09-30T15:02:13;1.13;;;0.60;;
17365;SDS011;8800;50.118;9.900;2022-09-30T15:04:43;1.50;;;0.70;;
17365;SDS011;8800;50.118;9.900;2022-09-30T15:07:11;1.30;;;0.70;;
17365;SDS011;8800;50.118;9.900;2022-09-30T15:09:37;1.30;;;0.80;;
17365;SDS011;8800;50.118;9.900;2022-09-30T15:12:13;3.25;;;0.90;;
17365;SDS011;8800;50.118;9.900;2022-09-30T15:14:44;1.15;;;0.80;;
17365;SDS011;8800;50.118;9.900;2022-09-30T15:17:15;1.05;;;0.60;;
17365;SDS011;8800;50.118;9.900;2022-09-30T15:19:42;1.75;;;1.20;;
17365;SDS011;8800;50.118;9.900;2022-09-30T15:22:09;0.85;;;0.60;;
17365;SDS011;8800;50.118;9.900;2022-09-30T15:24:36;1.00;;;0.70;;
17365;SDS011;8800;50.118;9.900;2022-09-30T15:27:04;1.13;;;0.60;;
17365;SDS011;8800;50.118;9.900;2022-09-30T15:29:35;0.82;;;0.73;;
17365;SDS011;8800;50.118;9.900;2022-09-30T15:32:02;1.00;;;0.70;;
17365;SDS011;8800;50.118;9.900;2022-09-30T15:34:29;0.95;;;0.73;;
17365;SDS011;8800;50.118;9.900;2022-09-30T15:36:57;0.60;;;0.60;;